Terminal Aerodrome Forecast
Issued by NWS Lubbock, TX

Home | Current Version | Previous Version | Text Only | Print | Product List | Glossary On
Versions: 1 2 3 4 5 6 7 8 9 10 11 12 13 14 15 16 17
000
FTUS44 KLUB 020615 AAA
TAFLBB
TAF AMD
KLBB 020615Z 0206/0306 24008KT P6SM VCSH SCT120 BKN250
      TEMPO 0207/0209 28013KT SCT070 BKN120
     FM021500 19016KT P6SM FEW100 SCT250=

USA.gov is the U.S. government's official web portal to all federal, state and local government web resources and services.